createdAt,value
2018-11-07T00:00:22.355Z,644.02
2018-11-07T00:00:57.015Z,475.87
2018-11-07T00:01:32.034Z,500.02
2018-11-07T00:02:06.835Z,460.13
2018-11-07T00:02:41.638Z,450.55
2018-11-07T00:03:16.619Z,600.75
2018-11-07T00:03:51.537Z,1020.72
2018-11-07T00:04:26.374Z,540.95
2018-11-07T00:05:01.375Z,649.65
2018-11-07T00:05:36.215Z,794.50
2018-11-07T00:06:11.122Z,436.23
2018-11-07T00:06:45.981Z,332.43
2018-11-07T00:07:20.915Z,279.43
2018-11-07T00:07:56.040Z,522.67
2018-11-07T00:08:30.971Z,515.65
2018-11-07T00:09:06.955Z,444.15
2018-11-07T00:09:41.934Z,303.37
2018-11-07T00:10:16.915Z,251.60
2018-11-07T00:10:51.774Z,227.68
2018-11-07T00:11:26.714Z,191.88
2018-11-07T00:12:01.524Z,244.00
2018-11-07T00:12:36.415Z,229.80
2018-11-07T00:13:12.136Z,287.93
2018-11-07T00:13:47.922Z,335.80
2018-11-07T00:14:22.815Z,252.95
2018-11-07T00:14:57.694Z,303.83
2018-11-07T00:15:32.614Z,366.38
2018-11-07T00:16:07.875Z,252.90
2018-11-07T00:16:42.481Z,211.10
2018-11-07T00:17:17.478Z,256.70
2018-11-07T00:17:52.494Z,187.50
2018-11-07T00:18:27.035Z,190.55
2018-11-07T00:19:01.774Z,203.58
2018-11-07T00:19:36.444Z,184.87
2018-11-07T00:20:11.917Z,196.75
2018-11-07T00:20:46.655Z,258.25
2018-11-07T00:21:21.714Z,190.18
2018-11-07T00:21:56.495Z,198.72
2018-11-07T00:22:31.375Z,153.47
2018-11-07T00:23:06.117Z,189.85
2018-11-07T00:23:41.014Z,173.20
2018-11-07T00:24:15.934Z,192.05
2018-11-07T00:24:50.875Z,217.45
2018-11-07T00:25:25.654Z,236.37
2018-11-07T00:26:00.634Z,192.65
2018-11-07T00:26:35.722Z,229.07
2018-11-07T00:27:10.557Z,221.45
2018-11-07T00:27:45.455Z,339.75
2018-11-07T00:28:20.354Z,396.40
2018-11-07T00:28:55.358Z,231.80
2018-11-07T00:29:30.114Z,192.55
2018-11-07T00:30:05.310Z,176.57
2018-11-07T00:30:40.201Z,209.65
2018-11-07T00:31:15.142Z,164.35
2018-11-07T00:31:49.855Z,241.75
2018-11-07T00:32:24.734Z,243.50
2018-11-07T00:32:59.445Z,420.02
2018-11-07T00:33:34.315Z,343.27
2018-11-07T00:34:09.535Z,662.10
2018-11-07T00:34:44.095Z,327.45
2018-11-07T00:35:18.962Z,379.02
2018-11-07T00:35:53.955Z,183.80
2018-11-07T00:36:28.894Z,209.70
2018-11-07T00:37:03.837Z,189.30
2018-11-07T00:37:38.735Z,193.80
2018-11-07T00:38:13.655Z,182.32
2018-11-07T00:38:48.565Z,184.85
2018-11-07T00:39:23.455Z,182.88
2018-11-07T00:39:58.394Z,189.57
2018-11-07T00:40:33.374Z,171.50
2018-11-07T00:41:08.195Z,200.95
2018-11-07T00:41:43.314Z,222.80
2018-11-07T00:42:18.428Z,435.60
2018-11-07T00:42:53.182Z,443.77
2018-11-07T00:43:28.074Z,486.52
2018-11-07T00:44:02.975Z,688.40
2018-11-07T00:44:37.922Z,675.48
2018-11-07T00:45:13.815Z,1039.83
2018-11-07T00:45:48.613Z,869.00
2018-11-07T00:46:23.423Z,534.85
2018-11-07T00:46:58.454Z,535.60
2018-11-07T00:47:33.373Z,498.40
2018-11-07T00:48:08.294Z,371.50
2018-11-07T00:48:43.073Z,446.93
2018-11-07T00:49:17.794Z,295.65
2018-11-07T00:49:52.654Z,194.80
2018-11-07T00:50:27.762Z,263.30
2018-11-07T00:51:02.635Z,215.18
2018-11-07T00:51:37.596Z,239.90
2018-11-07T00:52:12.434Z,222.40
2018-11-07T00:52:47.495Z,227.18
2018-11-07T00:53:22.474Z,212.80
2018-11-07T00:53:57.574Z,237.30
2018-11-07T00:54:32.442Z,208.15
2018-11-07T00:55:07.555Z,208.57
2018-11-07T00:55:42.514Z,206.80
2018-11-07T00:56:17.254Z,158.37
2018-11-07T00:56:52.354Z,150.72
2018-11-07T00:57:27.213Z,251.77
2018-11-07T00:58:02.110Z,259.23
2018-11-07T00:58:36.814Z,352.87
2018-11-07T00:59:11.793Z,348.80
2018-11-07T00:59:46.581Z,269.77
2018-11-07T01:00:21.514Z,598.65
2018-11-07T01:00:56.416Z,610.33
2018-11-07T01:01:31.414Z,290.57
2018-11-07T01:02:06.435Z,195.05
2018-11-07T01:02:41.561Z,182.47
2018-11-07T01:03:16.715Z,164.18
2018-11-07T01:03:51.676Z,148.25
2018-11-07T01:04:26.674Z,143.13
2018-11-07T01:05:01.853Z,139.05
2018-11-07T01:05:36.933Z,141.15
2018-11-07T01:06:11.815Z,138.32
2018-11-07T01:06:46.894Z,146.50
2018-11-07T01:07:22.155Z,171.07
2018-11-07T01:07:57.236Z,160.75
2018-11-07T01:08:32.155Z,162.20
2018-11-07T01:09:11.830Z,136.88
2018-11-07T01:09:46.834Z,127.53
2018-11-07T01:10:21.945Z,142.20
2018-11-07T01:10:56.894Z,144.37
2018-11-07T01:11:31.934Z,144.62
2018-11-07T01:12:07.133Z,143.22
2018-11-07T01:12:42.838Z,162.47
2018-11-07T01:13:17.854Z,150.10
2018-11-07T01:13:53.116Z,168.05
2018-11-07T01:14:28.096Z,181.18
2018-11-07T01:15:03.014Z,160.10
2018-11-07T01:15:37.795Z,185.18
2018-11-07T01:16:12.634Z,155.95
2018-11-07T01:16:47.551Z,176.42
2018-11-07T01:17:22.615Z,182.62
2018-11-07T01:17:57.581Z,176.37
2018-11-07T01:18:32.782Z,128.07
2018-11-07T01:19:08.094Z,135.57
2018-11-07T01:19:43.054Z,132.00
2018-11-07T01:20:17.942Z,147.35
2018-11-07T01:20:52.881Z,155.95
2018-11-07T01:21:27.822Z,177.97
2018-11-07T01:22:02.779Z,166.47
2018-11-07T01:22:37.807Z,170.28
2018-11-07T01:23:12.803Z,172.47
2018-11-07T01:23:47.755Z,171.40
2018-11-07T01:24:22.576Z,142.82
2018-11-07T01:24:57.697Z,134.55
2018-11-07T01:25:32.644Z,152.22
2018-11-07T01:26:07.534Z,192.00
2018-11-07T01:26:42.314Z,151.18
2018-11-07T01:27:17.514Z,149.42
2018-11-07T01:27:52.354Z,161.05
2018-11-07T01:28:27.334Z,162.50
2018-11-07T01:29:02.255Z,122.07
2018-11-07T01:29:37.015Z,118.25
2018-11-07T01:30:13.912Z,115.20
2018-11-07T01:30:48.834Z,116.42
2018-11-07T01:31:23.902Z,118.22
2018-11-07T01:31:58.855Z,131.85
2018-11-07T01:32:33.735Z,106.87
2018-11-07T01:33:08.933Z,141.37
2018-11-07T01:33:43.757Z,134.82
2018-11-07T01:34:18.694Z,112.50
2018-11-07T01:34:53.694Z,126.22
2018-11-07T01:35:28.478Z,123.10
2018-11-07T01:36:03.558Z,112.75
2018-11-07T01:36:38.255Z,111.42
2018-11-07T01:37:13.255Z,116.93
2018-11-07T01:37:48.234Z,130.80
2018-11-07T01:38:23.258Z,124.00
2018-11-07T01:38:58.054Z,103.75
2018-11-07T01:39:32.855Z,115.80
2018-11-07T01:40:11.255Z,113.45
2018-11-07T01:40:46.134Z,110.15
2018-11-07T01:41:20.901Z,91.67
2018-11-07T01:41:55.781Z,103.92
2018-11-07T01:42:30.733Z,119.55
2018-11-07T01:43:05.957Z,113.35
2018-11-07T01:43:40.695Z,97.00
2018-11-07T01:44:15.442Z,107.47
2018-11-07T01:44:50.454Z,164.57
2018-11-07T01:45:25.453Z,268.65
2018-11-07T01:46:00.475Z,153.45
2018-11-07T01:46:35.375Z,153.05
2018-11-07T01:47:10.274Z,178.85
2018-11-07T01:47:45.236Z,192.60
2018-11-07T01:48:19.802Z,246.07
2018-11-07T01:48:54.454Z,372.02
2018-11-07T01:49:29.093Z,300.73
2018-11-07T01:50:03.854Z,270.42
2018-11-07T01:50:38.594Z,214.12
2018-11-07T01:51:13.334Z,296.77
2018-11-07T01:51:47.978Z,245.80
2018-11-07T01:52:22.654Z,210.08
2018-11-07T01:52:57.373Z,144.85
2018-11-07T01:53:32.193Z,131.87
2018-11-07T01:54:07.002Z,142.37
2018-11-07T01:54:41.714Z,139.55
2018-11-07T01:55:16.213Z,131.43
2018-11-07T01:55:50.994Z,115.82
2018-11-07T01:56:25.733Z,146.00
2018-11-07T01:57:00.336Z,119.35
2018-11-07T01:57:35.253Z,110.45
2018-11-07T01:58:10.054Z,112.62
2018-11-07T01:58:44.834Z,117.93
2018-11-07T01:59:19.494Z,143.97
2018-11-07T01:59:54.213Z,111.57
2018-11-07T02:00:28.762Z,107.15
2018-11-07T02:01:03.514Z,125.35
2018-11-07T02:01:38.233Z,148.62
2018-11-07T02:02:12.936Z,438.60
2018-11-07T02:02:47.714Z,154.85
2018-11-07T02:03:22.521Z,147.60
2018-11-07T02:03:57.236Z,249.47
2018-11-07T02:04:32.042Z,146.02
2018-11-07T02:05:07.081Z,151.45
2018-11-07T02:05:42.038Z,138.77
2018-11-07T02:06:16.993Z,139.35
2018-11-07T02:06:51.919Z,127.38
2018-11-07T02:07:26.693Z,107.58
2018-11-07T02:08:01.661Z,92.67
2018-11-07T02:08:36.574Z,113.88
2018-11-07T02:09:11.599Z,109.32
2018-11-07T02:09:46.375Z,120.28
2018-11-07T02:10:21.214Z,122.95
2018-11-07T02:10:56.002Z,129.85
2018-11-07T02:11:30.854Z,116.10
2018-11-07T02:12:05.736Z,121.50
2018-11-07T02:12:41.063Z,124.12
2018-11-07T02:13:15.874Z,125.07
2018-11-07T02:13:50.794Z,104.45
2018-11-07T02:14:25.598Z,99.20
2018-11-07T02:15:00.574Z,114.05
2018-11-07T02:15:35.455Z,106.72
2018-11-07T02:16:10.514Z,94.45
2018-11-07T02:16:45.682Z,105.32
2018-11-07T02:17:20.634Z,104.50
2018-11-07T02:17:55.574Z,119.13
2018-11-07T02:18:30.410Z,109.00
2018-11-07T02:19:05.773Z,96.28
2018-11-07T02:19:40.794Z,105.12
2018-11-07T02:20:15.854Z,100.05
2018-11-07T02:20:50.674Z,97.30
2018-11-07T02:21:25.594Z,91.20
2018-11-07T02:22:00.614Z,102.07
2018-11-07T02:22:35.437Z,107.15
2018-11-07T02:23:10.341Z,100.35
2018-11-07T02:23:45.202Z,108.90
2018-11-07T02:24:21.114Z,105.58
2018-11-07T02:24:55.933Z,106.55
2018-11-07T02:25:30.734Z,103.90
2018-11-07T02:26:05.693Z,103.78
2018-11-07T02:26:40.553Z,107.15
2018-11-07T02:27:15.314Z,125.15
2018-11-07T02:27:50.215Z,97.10
2018-11-07T02:28:25.014Z,114.55
2018-11-07T02:28:59.894Z,121.07
2018-11-07T02:29:34.956Z,170.55
2018-11-07T02:30:13.126Z,161.55
2018-11-07T02:30:47.816Z,134.15
2018-11-07T02:31:22.755Z,144.40
2018-11-07T02:31:57.722Z,159.12
2018-11-07T02:32:32.735Z,139.85
2018-11-07T02:33:07.841Z,166.20
2018-11-07T02:33:42.796Z,263.10
2018-11-07T02:34:17.715Z,326.90
2018-11-07T02:34:52.554Z,544.92
2018-11-07T02:35:27.333Z,540.88
2018-11-07T02:36:02.235Z,538.52
2018-11-07T02:36:37.241Z,602.10
2018-11-07T02:37:12.243Z,739.67
2018-11-07T02:37:47.433Z,423.23
2018-11-07T02:38:25.622Z,420.77
2018-11-07T02:39:00.782Z,282.80
2018-11-07T02:39:35.574Z,380.30
2018-11-07T02:40:10.575Z,301.45
2018-11-07T02:40:45.594Z,218.00
2018-11-07T02:41:20.662Z,150.93
2018-11-07T02:41:55.577Z,153.68
2018-11-07T02:42:30.474Z,145.00
2018-11-07T02:43:05.675Z,142.18
2018-11-07T02:43:40.742Z,172.98
2018-11-07T02:44:15.644Z,155.22
2018-11-07T02:44:50.495Z,131.25
2018-11-07T02:45:25.523Z,138.85
2018-11-07T02:46:00.233Z,124.10
2018-11-07T02:46:35.156Z,130.10
2018-11-07T02:47:10.033Z,127.95
2018-11-07T02:47:44.813Z,129.45
2018-11-07T02:48:19.658Z,123.40
2018-11-07T02:48:54.639Z,97.92
2018-11-07T02:49:29.594Z,104.35
2018-11-07T02:50:04.455Z,98.70
2018-11-07T02:50:39.294Z,98.03
2018-11-07T02:51:14.139Z,102.12
2018-11-07T02:51:49.181Z,105.47
2018-11-07T02:52:23.993Z,99.87
2018-11-07T02:52:58.794Z,104.87
2018-11-07T02:53:33.940Z,123.72
2018-11-07T02:54:08.914Z,138.25
2018-11-07T02:54:43.753Z,143.82
2018-11-07T02:55:18.656Z,143.52
2018-11-07T02:55:53.575Z,127.53
2018-11-07T02:56:28.486Z,115.47
2018-11-07T02:57:03.355Z,125.05
2018-11-07T02:57:38.633Z,120.20
2018-11-07T02:58:13.453Z,124.02
2018-11-07T02:58:48.394Z,128.07
2018-11-07T02:59:23.295Z,118.97
2018-11-07T02:59:58.114Z,104.07
2018-11-07T03:00:33.036Z,105.37
2018-11-07T03:01:08.280Z,146.57
2018-11-07T03:01:43.114Z,132.72
2018-11-07T03:02:18.211Z,137.05
2018-11-07T03:07:56.553Z,122.15
2018-11-07T03:08:32.996Z,105.03
2018-11-07T03:09:10.046Z,111.00
2018-11-07T03:09:44.954Z,104.43
2018-11-07T03:10:19.793Z,99.00
2018-11-07T03:10:54.695Z,108.40
2018-11-07T03:11:29.536Z,108.65
2018-11-07T03:12:04.515Z,115.95
2018-11-07T03:12:39.675Z,104.80
2018-11-07T03:13:14.773Z,131.95
2018-11-07T03:13:49.535Z,110.10
2018-11-07T03:14:24.514Z,132.82
2018-11-07T03:14:59.414Z,124.55
2018-11-07T03:15:34.274Z,119.30
2018-11-07T03:16:09.034Z,115.88
2018-11-07T03:16:43.877Z,121.02
2018-11-07T03:17:18.654Z,107.67
2018-11-07T03:17:53.353Z,143.25
2018-11-07T03:18:28.297Z,104.92
2018-11-07T03:19:02.993Z,103.87
2018-11-07T03:19:37.799Z,117.37
2018-11-07T03:20:13.554Z,117.37
2018-11-07T03:20:48.404Z,138.03
2018-11-07T03:21:23.121Z,153.02
2018-11-07T03:21:57.940Z,138.60
2018-11-07T03:22:32.953Z,137.45
2018-11-07T03:23:07.855Z,146.70
2018-11-07T03:23:42.894Z,148.02
2018-11-07T03:24:17.835Z,139.30
2018-11-07T03:24:52.742Z,156.05
2018-11-07T03:25:27.614Z,145.15
2018-11-07T03:26:02.778Z,142.85
2018-11-07T03:26:37.833Z,154.78
2018-11-07T03:27:12.553Z,144.40
2018-11-07T03:27:47.514Z,128.55
2018-11-07T03:28:22.534Z,138.18
2018-11-07T03:28:57.514Z,138.07
2018-11-07T03:29:32.253Z,141.25
2018-11-07T03:30:08.093Z,131.82
2018-11-07T03:30:42.935Z,129.25
2018-11-07T03:31:17.885Z,116.45
2018-11-07T03:31:53.007Z,129.07
2018-11-07T03:32:27.661Z,130.95
2018-11-07T03:33:02.494Z,116.85
2018-11-07T03:33:37.259Z,143.60
2018-11-07T03:34:12.175Z,131.52
2018-11-07T03:34:46.794Z,134.40
2018-11-07T03:35:28.357Z,137.80
2018-11-07T03:36:03.034Z,122.30
2018-11-07T03:36:38.115Z,122.02
2018-11-07T03:37:12.894Z,100.80
2018-11-07T03:37:47.593Z,117.10
2018-11-07T03:38:22.261Z,118.55
2018-11-07T03:38:57.498Z,120.17
2018-11-07T03:39:32.622Z,132.20
2018-11-07T03:40:08.015Z,139.75
2018-11-07T03:40:43.034Z,101.53
2018-11-07T03:41:17.837Z,104.90
2018-11-07T03:41:52.763Z,112.20
2018-11-07T03:42:27.776Z,113.32
2018-11-07T03:43:02.578Z,123.78
2018-11-07T03:43:37.355Z,137.32
2018-11-07T03:44:12.075Z,124.60
2018-11-07T03:44:47.133Z,103.38
2018-11-07T03:45:27.076Z,113.90
2018-11-07T03:46:02.074Z,106.40
2018-11-07T03:46:36.722Z,141.15
2018-11-07T03:47:11.614Z,138.77
2018-11-07T03:47:46.376Z,132.15
2018-11-07T03:48:21.056Z,124.38
2018-11-07T03:48:55.955Z,121.57
2018-11-07T03:49:30.856Z,93.42
2018-11-07T03:50:05.934Z,99.22
2018-11-07T03:50:40.834Z,100.55
2018-11-07T03:51:15.761Z,94.20
2018-11-07T03:51:50.755Z,103.92
2018-11-07T03:52:25.676Z,90.62
2018-11-07T03:53:00.491Z,107.60
2018-11-07T03:53:35.295Z,94.35
2018-11-07T03:54:10.261Z,76.37
2018-11-07T03:54:45.094Z,83.00
2018-11-07T03:55:19.976Z,90.50
2018-11-07T03:55:54.813Z,93.07
2018-11-07T03:56:29.754Z,94.10
2018-11-07T03:57:04.502Z,95.65
2018-11-07T03:57:39.078Z,80.70
2018-11-07T03:58:13.894Z,96.97
2018-11-07T03:58:48.895Z,105.40
2018-11-07T03:59:23.595Z,94.55
2018-11-07T03:59:58.375Z,117.53
2018-11-07T04:00:33.113Z,128.40
2018-11-07T04:01:07.995Z,104.32
2018-11-07T04:01:42.795Z,94.50
2018-11-07T04:02:17.614Z,92.90
2018-11-07T04:02:52.575Z,88.92
2018-11-07T04:03:27.557Z,100.07
2018-11-07T04:04:02.475Z,102.82
2018-11-07T04:04:37.442Z,125.95
2018-11-07T04:05:12.654Z,110.70
2018-11-07T04:05:47.337Z,95.10
2018-11-07T04:06:22.002Z,90.97
2018-11-07T04:06:56.675Z,99.83
2018-11-07T04:07:31.354Z,143.22
2018-11-07T04:08:06.502Z,141.53
2018-11-07T04:08:41.014Z,116.33
2018-11-07T04:09:15.794Z,122.17
2018-11-07T04:09:50.355Z,116.15
2018-11-07T04:10:24.975Z,123.42
2018-11-07T04:10:59.978Z,125.00
2018-11-07T04:11:34.534Z,99.25
2018-11-07T04:12:09.194Z,98.92
2018-11-07T04:12:43.796Z,111.62
2018-11-07T04:13:18.577Z,98.60
2018-11-07T04:13:53.174Z,100.70
2018-11-07T04:14:27.956Z,114.28
2018-11-07T04:15:02.515Z,132.12
2018-11-07T04:15:37.354Z,120.13
2018-11-07T04:16:12.074Z,136.18
2018-11-07T04:16:46.635Z,119.53
2018-11-07T04:17:21.135Z,140.20
2018-11-07T04:17:55.856Z,109.35
2018-11-07T04:18:30.435Z,106.60
2018-11-07T04:19:05.294Z,113.15
2018-11-07T04:19:39.969Z,128.97
2018-11-07T04:20:14.614Z,129.38
2018-11-07T04:20:49.154Z,114.08
2018-11-07T04:21:23.993Z,157.25
2018-11-07T04:21:58.473Z,188.20
2018-11-07T04:22:33.114Z,209.47
2018-11-07T04:23:07.614Z,238.72
2018-11-07T04:23:42.094Z,248.70
2018-11-07T04:24:16.696Z,264.48
2018-11-07T04:24:51.455Z,243.52
2018-11-07T04:25:26.214Z,214.68
2018-11-07T04:26:00.875Z,202.40
2018-11-07T04:26:36.836Z,201.45
2018-11-07T04:27:11.474Z,180.93
2018-11-07T04:27:46.115Z,185.75
2018-11-07T04:28:20.918Z,183.87
2018-11-07T04:28:55.626Z,242.22
2018-11-07T04:29:30.477Z,266.70
2018-11-07T04:30:06.656Z,263.00
2018-11-07T04:30:41.336Z,261.27
2018-11-07T04:31:16.136Z,258.13
2018-11-07T04:31:50.860Z,258.73
2018-11-07T04:32:25.555Z,244.28
2018-11-07T04:33:00.335Z,282.90
2018-11-07T04:33:34.978Z,244.32
2018-11-07T04:34:09.634Z,219.15
2018-11-07T04:34:44.654Z,219.62
2018-11-07T04:35:19.317Z,239.68
2018-11-07T04:35:54.162Z,250.25
2018-11-07T04:36:28.933Z,256.27
2018-11-07T04:37:03.553Z,203.30
2018-11-07T04:37:38.353Z,218.65
2018-11-07T04:38:12.874Z,216.02
2018-11-07T04:38:47.815Z,209.60
2018-11-07T04:39:22.474Z,192.32
2018-11-07T04:39:57.135Z,179.97
2018-11-07T04:40:31.802Z,210.43
2018-11-07T04:41:06.675Z,202.13
2018-11-07T04:41:41.454Z,192.55
2018-11-07T04:42:16.173Z,202.65
2018-11-07T04:42:51.154Z,176.20
2018-11-07T04:43:25.814Z,187.68
2018-11-07T04:44:00.578Z,185.20
2018-11-07T04:44:35.375Z,167.15
2018-11-07T04:45:10.335Z,163.18
2018-11-07T04:45:45.178Z,167.53
2018-11-07T04:46:20.257Z,177.65
2018-11-07T04:46:55.175Z,177.10
2018-11-07T04:47:30.115Z,158.27
2018-11-07T04:48:04.955Z,183.57
2018-11-07T04:48:39.975Z,162.75
2018-11-07T04:49:14.995Z,179.47
2018-11-07T04:49:49.936Z,194.62
2018-11-07T04:50:24.815Z,194.45
2018-11-07T04:50:59.855Z,198.60
2018-11-07T04:51:34.655Z,192.45
2018-11-07T04:52:09.695Z,224.98
2018-11-07T04:52:44.815Z,195.28
2018-11-07T04:53:19.695Z,193.17
2018-11-07T04:53:54.644Z,218.67
2018-11-07T04:54:29.635Z,174.42
2018-11-07T04:55:04.675Z,213.45
2018-11-07T04:55:39.616Z,210.97
2018-11-07T04:56:14.595Z,192.82
2018-11-07T04:56:49.656Z,175.10
2018-11-07T04:57:24.675Z,183.10
2018-11-07T04:57:59.716Z,203.27
2018-11-07T04:58:34.943Z,212.93
2018-11-07T04:59:09.795Z,208.82
2018-11-07T04:59:44.875Z,187.68
2018-11-07T05:00:19.675Z,173.55
2018-11-07T05:00:54.578Z,210.65
2018-11-07T05:01:29.615Z,188.37
2018-11-07T05:02:04.555Z,195.68
2018-11-07T05:02:39.555Z,170.80
2018-11-07T05:03:14.896Z,164.67
2018-11-07T05:03:49.916Z,178.85
2018-11-07T05:04:24.815Z,174.42
2018-11-07T05:04:59.615Z,160.15
2018-11-07T05:05:34.556Z,178.15
2018-11-07T05:06:09.598Z,181.45
2018-11-07T05:06:44.435Z,177.07
2018-11-07T05:07:19.615Z,185.88
2018-11-07T05:07:54.590Z,175.00
2018-11-07T05:08:29.771Z,168.90
2018-11-07T05:09:04.995Z,170.00
2018-11-07T05:09:40.095Z,151.30
2018-11-07T05:10:15.035Z,179.93
2018-11-07T05:10:50.037Z,189.75
2018-11-07T05:11:25.075Z,183.93
2018-11-07T05:11:59.994Z,185.48
2018-11-07T05:12:35.234Z,152.90
2018-11-07T05:13:10.055Z,156.90
2018-11-07T05:13:45.175Z,150.97
2018-11-07T05:14:20.035Z,168.20
2018-11-07T05:14:55.095Z,171.85
2018-11-07T05:15:29.959Z,139.60
2018-11-07T05:16:05.042Z,140.45
2018-11-07T05:16:40.155Z,140.37
2018-11-07T05:17:15.075Z,142.15
2018-11-07T05:17:49.935Z,129.23
2018-11-07T05:18:24.935Z,127.65
2018-11-07T05:18:59.895Z,148.60
2018-11-07T05:19:34.745Z,155.15
2018-11-07T05:20:11.215Z,141.10
2018-11-07T05:20:46.136Z,154.72
2018-11-07T05:21:21.034Z,161.20
2018-11-07T05:21:56.060Z,163.65
2018-11-07T05:22:30.974Z,167.68
2018-11-07T05:23:06.195Z,153.95
2018-11-07T05:23:41.235Z,180.20
2018-11-07T05:24:16.455Z,179.87
2018-11-07T05:24:51.475Z,171.53
2018-11-07T05:25:26.435Z,187.18
2018-11-07T05:26:01.689Z,197.78
2018-11-07T05:26:36.456Z,182.85
2018-11-07T05:27:11.596Z,183.52
2018-11-07T05:27:46.595Z,175.05
2018-11-07T05:28:21.475Z,191.28
2018-11-07T05:28:56.435Z,181.78
2018-11-07T05:29:31.437Z,170.45
2018-11-07T05:30:07.415Z,181.10
2018-11-07T05:30:42.274Z,198.57
2018-11-07T05:31:17.235Z,194.28
2018-11-07T05:31:52.147Z,139.90
2018-11-07T05:32:27.275Z,138.28
2018-11-07T05:33:02.298Z,119.93
2018-11-07T05:33:37.215Z,139.45
2018-11-07T05:34:12.015Z,142.70
2018-11-07T05:34:47.215Z,156.02
2018-11-07T05:35:21.755Z,153.50
2018-11-07T05:35:56.335Z,145.80
2018-11-07T05:36:31.295Z,142.43
2018-11-07T05:37:06.335Z,177.38
2018-11-07T05:37:41.435Z,151.60
2018-11-07T05:38:16.075Z,171.32
2018-11-07T05:38:50.736Z,175.45
2018-11-07T05:39:25.517Z,161.03
2018-11-07T05:40:00.240Z,163.65
2018-11-07T05:40:34.916Z,145.97
2018-11-07T05:41:09.800Z,151.87
2018-11-07T05:41:44.376Z,174.50
2018-11-07T05:42:19.016Z,173.38
2018-11-07T05:42:53.636Z,180.00
2018-11-07T05:43:28.496Z,160.82
2018-11-07T05:44:03.316Z,189.05
2018-11-07T05:44:38.076Z,184.03
2018-11-07T05:45:13.056Z,172.85
2018-11-07T05:45:47.876Z,174.15
2018-11-07T05:46:22.676Z,181.78
2018-11-07T05:46:57.437Z,161.77
2018-11-07T05:47:32.017Z,142.60
2018-11-07T05:48:06.618Z,142.43
2018-11-07T05:48:41.217Z,158.55
2018-11-07T05:49:15.850Z,134.65
2018-11-07T05:49:50.619Z,143.72
2018-11-07T05:50:25.376Z,154.05
2018-11-07T05:51:00.177Z,143.15
2018-11-07T05:51:35.023Z,151.85
2018-11-07T05:52:09.756Z,163.92
2018-11-07T05:52:44.323Z,154.40
2018-11-07T05:53:18.976Z,143.25
2018-11-07T05:53:53.616Z,156.63
2018-11-07T05:54:28.338Z,147.62
2018-11-07T05:55:02.983Z,149.05
2018-11-07T05:55:37.856Z,142.32
2018-11-07T05:56:12.196Z,149.93
2018-11-07T05:56:46.856Z,148.57
2018-11-07T05:57:21.577Z,157.25
2018-11-07T05:57:56.296Z,141.07
2018-11-07T05:58:30.859Z,133.70
2018-11-07T05:59:05.619Z,123.10
2018-11-07T05:59:40.477Z,129.57
2018-11-07T06:00:15.256Z,144.00
2018-11-07T06:00:50.018Z,148.22
2018-11-07T06:01:24.636Z,133.27
2018-11-07T06:01:59.298Z,133.63
2018-11-07T06:02:33.937Z,143.82
2018-11-07T06:03:08.495Z,130.97
2018-11-07T06:03:43.083Z,137.00
2018-11-07T06:04:17.816Z,145.00
2018-11-07T06:04:52.476Z,113.32
2018-11-07T06:05:27.176Z,132.40
2018-11-07T06:06:01.976Z,133.72
2018-11-07T06:06:36.795Z,108.15
2018-11-07T06:07:11.363Z,112.17
2018-11-07T06:07:46.096Z,96.65
2018-11-07T06:08:20.835Z,95.45
2018-11-07T06:08:55.356Z,98.12
2018-11-07T06:09:29.896Z,105.15
2018-11-07T06:10:05.196Z,98.80
2018-11-07T06:10:40.019Z,113.68
2018-11-07T06:11:14.797Z,102.92
2018-11-07T06:11:49.423Z,109.80
2018-11-07T06:12:24.296Z,97.17
2018-11-07T06:12:59.017Z,97.30
2018-11-07T06:13:33.885Z,87.70
2018-11-07T06:14:08.739Z,85.65
2018-11-07T06:14:43.574Z,94.90
2018-11-07T06:15:18.324Z,90.95
2018-11-07T06:15:53.192Z,91.12
2018-11-07T06:16:27.937Z,83.10
2018-11-07T06:17:02.738Z,82.40
2018-11-07T06:17:37.596Z,81.02
2018-11-07T06:18:12.056Z,100.42
2018-11-07T06:18:46.695Z,76.92
2018-11-07T06:19:21.416Z,87.57
2018-11-07T06:19:56.098Z,81.02
2018-11-07T06:20:30.635Z,86.80
2018-11-07T06:21:05.255Z,78.40
2018-11-07T06:21:40.055Z,76.53
2018-11-07T06:22:14.683Z,78.33
2018-11-07T06:22:49.196Z,85.25
2018-11-07T06:23:24.017Z,69.95
2018-11-07T06:23:58.883Z,78.52
2018-11-07T06:24:33.697Z,75.57
2018-11-07T06:25:08.260Z,76.97
2018-11-07T06:25:43.098Z,82.40
2018-11-07T06:26:17.763Z,75.75
2018-11-07T06:26:52.722Z,79.55
2018-11-07T06:27:27.401Z,69.42
2018-11-07T06:28:02.136Z,73.05
2018-11-07T06:28:36.978Z,76.15
2018-11-07T06:29:11.776Z,69.85
2018-11-07T06:29:46.397Z,73.65
2018-11-07T06:30:21.040Z,71.95
2018-11-07T06:31:58.975Z,65.62
2018-11-07T06:32:33.635Z,65.10
2018-11-07T06:33:08.397Z,61.00
2018-11-07T06:33:43.056Z,59.63
2018-11-07T06:34:17.701Z,62.53
2018-11-07T06:34:52.756Z,67.87
2018-11-07T06:35:27.497Z,66.15
2018-11-07T06:36:02.541Z,66.65
2018-11-07T06:36:37.396Z,66.42
2018-11-07T06:37:12.096Z,65.05
2018-11-07T06:37:46.935Z,82.50
2018-11-07T06:38:21.898Z,73.35
2018-11-07T06:38:56.783Z,66.65
2018-11-07T06:39:31.796Z,65.95
2018-11-07T06:40:08.055Z,75.57
2018-11-07T06:40:42.817Z,67.65
2018-11-07T06:41:17.873Z,74.17
2018-11-07T06:41:52.890Z,79.00
2018-11-07T06:42:27.830Z,75.95
2018-11-07T06:43:02.870Z,82.20
2018-11-07T06:43:37.990Z,80.70
2018-11-07T06:44:12.776Z,76.17
2018-11-07T06:44:47.766Z,73.00
2018-11-07T06:45:22.686Z,75.00
2018-11-07T06:45:57.766Z,89.37
2018-11-07T06:46:32.634Z,75.37
2018-11-07T06:47:07.634Z,77.30
2018-11-07T06:47:42.714Z,92.47
2018-11-07T06:48:17.434Z,67.53
2018-11-07T06:48:52.035Z,59.80
2018-11-07T06:49:26.794Z,75.17
2018-11-07T06:50:01.536Z,57.05
2018-11-07T06:50:36.156Z,70.40
2018-11-07T06:51:10.833Z,46.95
2018-11-07T06:51:45.595Z,66.10
2018-11-07T06:52:20.254Z,58.00
2018-11-07T06:52:55.297Z,64.07
2018-11-07T06:53:29.974Z,58.28
2018-11-07T06:54:04.675Z,54.20
2018-11-07T06:54:39.355Z,59.08
2018-11-07T06:55:14.032Z,59.27
2018-11-07T06:55:48.778Z,50.60
2018-11-07T06:56:23.374Z,51.95
2018-11-07T06:56:58.018Z,44.88
2018-11-07T06:57:32.674Z,49.93
2018-11-07T06:58:07.379Z,46.55
2018-11-07T06:58:42.254Z,44.35
2018-11-07T06:59:16.997Z,49.75
2018-11-07T06:59:51.717Z,44.03
2018-11-07T07:00:26.365Z,46.28
2018-11-07T07:01:00.941Z,43.78
2018-11-07T07:01:35.718Z,42.73
2018-11-07T07:02:10.334Z,40.85
2018-11-07T07:02:46.117Z,46.55
2018-11-07T07:03:21.095Z,54.77
2018-11-07T07:03:55.835Z,45.23
2018-11-07T07:04:30.634Z,46.80
2018-11-07T07:05:05.974Z,56.33
2018-11-07T07:05:40.733Z,46.77
2018-11-07T07:06:15.215Z,44.65
2018-11-07T07:06:49.923Z,57.15
2018-11-07T07:07:24.655Z,49.35
2018-11-07T07:07:59.358Z,45.65
2018-11-07T07:08:34.215Z,53.42
2018-11-07T07:09:09.875Z,45.90
2018-11-07T07:09:44.755Z,50.00
2018-11-07T07:10:19.855Z,55.92
2018-11-07T07:10:54.694Z,52.98
2018-11-07T07:11:29.514Z,48.28
2018-11-07T07:12:04.221Z,49.63
2018-11-07T07:12:38.881Z,54.85
2018-11-07T07:13:13.615Z,56.75
2018-11-07T07:13:48.356Z,51.68
2018-11-07T07:14:23.098Z,47.17
2018-11-07T07:14:57.938Z,47.27
2018-11-07T07:15:32.735Z,61.80
2018-11-07T07:16:07.615Z,49.13
2018-11-07T07:16:42.395Z,55.63
2018-11-07T07:17:17.326Z,48.13
2018-11-07T07:17:52.063Z,69.95
2018-11-07T07:18:26.653Z,55.78
2018-11-07T07:19:01.441Z,57.15
2018-11-07T07:19:35.934Z,59.70
2018-11-07T07:20:16.893Z,63.40
2018-11-07T07:20:51.433Z,49.40
2018-11-07T07:21:26.373Z,56.02
2018-11-07T07:22:01.283Z,57.17
2018-11-07T07:22:36.096Z,56.55
2018-11-07T07:23:10.761Z,58.65
2018-11-07T07:23:45.394Z,51.05
2018-11-07T07:24:20.135Z,50.73
2018-11-07T07:24:55.036Z,52.83